createdAt,value
2023-03-05T00:01:26.975Z,97800.59
2023-03-05T00:03:57.408Z,97798.72
2023-03-05T00:06:26.749Z,97797.91
2023-03-05T00:08:53.860Z,97800.88
2023-03-05T00:11:21.418Z,97786.63
2023-03-05T00:13:51.114Z,97798.72
2023-03-05T00:16:18.436Z,97794.41
2023-03-05T00:18:47.067Z,97795.50
2023-03-05T00:21:19.989Z,97754.88
2023-03-05T00:23:47.236Z,97786.91
2023-03-05T00:26:14.315Z,97786.66
2023-03-05T00:28:41.403Z,97787.72
2023-03-05T00:31:08.581Z,97779.38
2023-03-05T00:33:35.944Z,97780.44
2023-03-05T00:36:07.899Z,97778.28
2023-03-05T00:38:35.227Z,97771.31
2023-03-05T00:41:02.730Z,97771.84
2023-03-05T00:43:30.136Z,97778.56
2023-03-05T00:45:57.284Z,97776.94
2023-03-05T00:48:24.386Z,97765.63
2023-03-05T00:50:51.863Z,97773.16
2023-03-05T00:53:20.450Z,97771.28
2023-03-05T00:55:47.610Z,97768.56
2023-03-05T00:58:15.366Z,97748.66
2023-03-05T01:00:42.719Z,97759.19
2023-03-05T01:03:09.902Z,97749.50
2023-03-05T01:05:37.182Z,97757.59
2023-03-05T01:08:04.781Z,97756.50
2023-03-05T01:10:33.251Z,97747.63
2023-03-05T01:13:00.350Z,97745.19
2023-03-05T01:15:27.821Z,97737.13
2023-03-05T01:17:54.924Z,97741.72
2023-03-05T01:20:22.440Z,97731.75
2023-03-05T01:22:49.705Z,97730.69
2023-03-05T01:25:17.808Z,97728.00
2023-03-05T01:27:46.569Z,97739.25
2023-03-05T01:30:15.119Z,97728.53
2023-03-05T01:32:42.793Z,97730.69
2023-03-05T01:35:16.851Z,97722.34
2023-03-05T01:37:44.285Z,97724.22
2023-03-05T01:40:14.628Z,97718.56
2023-03-05T01:42:46.471Z,97705.66
2023-03-05T01:45:16.407Z,97715.88
2023-03-05T01:47:44.440Z,97719.91
2023-03-05T01:50:18.528Z,97708.63
2023-03-05T01:52:52.593Z,97709.44
2023-03-05T01:55:22.216Z,97700.81
2023-03-05T01:57:55.600Z,97699.50
2023-03-05T02:03:18.466Z,97700.28
2023-03-05T02:05:45.536Z,97698.41
2023-03-05T02:08:15.716Z,97707.56
2023-03-05T02:10:45.921Z,97701.91
2023-03-05T02:13:16.874Z,97697.31
2023-03-05T02:15:44.512Z,97670.44
2023-03-05T02:18:11.692Z,97685.75
2023-03-05T02:20:47.085Z,97681.72
2023-03-05T02:23:16.168Z,97682.00
2023-03-05T02:25:43.458Z,97683.09
2023-03-05T02:28:17.907Z,97687.91
2023-03-05T02:30:45.080Z,97668.28
2023-03-05T02:33:13.644Z,97670.16
2023-03-05T02:35:41.390Z,97673.13
2023-03-05T02:38:08.482Z,97674.47
2023-03-05T02:40:37.020Z,97672.31
2023-03-05T02:43:04.538Z,97667.75
2023-03-05T02:45:31.731Z,97671.53
2023-03-05T02:47:58.976Z,97645.97
2023-03-05T02:50:27.397Z,97664.53
2023-03-05T02:52:54.602Z,97661.03
2023-03-05T02:55:21.749Z,97667.22
2023-03-05T02:57:50.236Z,97653.53
2023-03-05T03:00:17.907Z,97654.84
2023-03-05T03:02:45.034Z,97648.41
2023-03-05T03:05:12.266Z,97652.69
2023-03-05T03:07:39.383Z,97657.25
2023-03-05T03:10:07.688Z,97646.50
2023-03-05T03:12:37.189Z,97651.34
2023-03-05T03:15:06.954Z,97645.16
2023-03-05T03:17:35.780Z,97661.00
2023-03-05T03:20:05.595Z,97645.19
2023-03-05T03:22:33.090Z,97641.66
2023-03-05T03:25:00.588Z,97644.38
2023-03-05T03:27:27.686Z,97634.97
2023-03-05T03:29:54.795Z,97637.38
2023-03-05T03:32:23.260Z,97636.75
2023-03-05T03:34:50.398Z,97635.88
2023-03-05T03:37:17.544Z,97609.75
2023-03-05T03:39:44.659Z,97628.81
2023-03-05T03:42:11.964Z,97626.13
2023-03-05T03:44:39.057Z,97614.56
2023-03-05T03:47:06.436Z,97619.41
2023-03-05T03:49:34.870Z,97610.50
2023-03-05T03:52:01.972Z,97610.84
2023-03-05T03:54:29.286Z,97612.16
2023-03-05T03:56:56.499Z,97616.19
2023-03-05T03:59:23.784Z,97611.13
2023-03-05T04:01:50.954Z,97589.84
2023-03-05T04:04:18.314Z,97608.69
2023-03-05T04:06:47.225Z,97607.91
2023-03-05T04:09:14.323Z,97602.25
2023-03-05T04:11:41.444Z,97596.09
2023-03-05T04:14:08.577Z,97598.56
2023-03-05T04:16:35.735Z,97595.38
2023-03-05T04:19:02.915Z,97596.16
2023-03-05T04:21:30.017Z,97584.59
2023-03-05T04:23:58.493Z,97588.91
2023-03-05T04:26:25.641Z,97587.00
2023-03-05T04:28:52.737Z,97584.88
2023-03-05T04:31:19.986Z,97586.78
2023-03-05T04:33:47.158Z,97579.50
2023-03-05T04:36:14.234Z,97585.16
2023-03-05T04:38:41.355Z,97583.84
2023-03-05T04:41:09.854Z,97584.38
2023-03-05T04:43:37.102Z,97583.31
2023-03-05T04:46:04.713Z,97577.94
2023-03-05T04:48:31.899Z,97584.09
2023-03-05T04:50:59.010Z,97585.47
2023-03-05T04:53:26.142Z,97587.09
2023-03-05T04:55:53.678Z,97579.81
2023-03-05T04:58:22.885Z,97582.50
2023-03-05T05:00:49.970Z,97574.44
2023-03-05T05:03:17.147Z,97569.63
2023-03-05T05:05:44.301Z,97569.31
2023-03-05T05:08:11.390Z,97572.03
2023-03-05T05:10:38.600Z,97568.78
2023-03-05T05:13:05.864Z,97570.16
2023-03-05T05:15:34.281Z,97564.78
2023-03-05T05:18:01.454Z,97570.41
2023-03-05T05:20:28.822Z,97560.47
2023-03-05T05:22:55.910Z,97564.78
2023-03-05T05:25:23.086Z,97569.34
2023-03-05T05:27:50.179Z,97576.31
2023-03-05T05:30:17.331Z,97574.13
2023-03-05T05:32:45.799Z,97565.28
2023-03-05T05:35:12.874Z,97570.38
2023-03-05T05:37:39.974Z,97569.53
2023-03-05T05:40:08.591Z,97579.47
2023-03-05T05:42:35.966Z,97571.16
2023-03-05T05:45:03.392Z,97570.34
2023-03-05T05:47:30.642Z,97561.41
2023-03-05T05:49:59.127Z,97569.47
2023-03-05T05:52:26.211Z,97568.16
2023-03-05T05:54:53.320Z,97579.47
2023-03-05T05:57:20.592Z,97568.13
2023-03-05T05:59:47.704Z,97581.25
2023-03-05T06:02:14.849Z,97577.47
2023-03-05T06:04:42.011Z,97579.84
2023-03-05T06:07:10.445Z,97578.78
2023-03-05T06:09:37.731Z,97578.78
2023-03-05T06:12:05.981Z,97581.44
2023-03-05T06:14:33.092Z,97580.63
2023-03-05T06:17:00.388Z,97584.31
2023-03-05T06:19:27.470Z,97586.34
2023-03-05T06:21:54.566Z,97585.22
2023-03-05T06:24:23.120Z,97581.72
2023-03-05T06:26:50.242Z,97584.16
2023-03-05T06:29:18.328Z,97583.38
2023-03-05T06:31:45.433Z,97583.13
2023-03-05T06:34:12.899Z,97582.63
2023-03-05T06:36:40.015Z,97588.81
2023-03-05T06:39:07.395Z,97500.75
2023-03-05T06:41:35.839Z,97577.75
2023-03-05T06:44:03.065Z,97575.03
2023-03-05T06:46:32.343Z,97576.13
2023-03-05T06:49:01.908Z,97576.59
2023-03-05T06:51:30.686Z,97576.88
2023-03-05T06:54:00.712Z,97577.72
2023-03-05T06:56:27.854Z,97575.34
2023-03-05T06:58:56.378Z,97576.94
2023-03-05T07:01:23.582Z,97576.75
2023-03-05T07:03:52.040Z,97552.59
2023-03-05T07:06:20.144Z,97571.38
2023-03-05T07:08:47.973Z,97553.69
2023-03-05T07:11:17.990Z,97561.22
2023-03-05T07:13:45.569Z,97571.72
2023-03-05T07:16:16.575Z,97577.91
2023-03-05T07:18:44.067Z,97568.19
2023-03-05T07:21:15.535Z,97564.44
2023-03-05T07:23:42.790Z,97569.31
2023-03-05T07:26:10.657Z,97572.53
2023-03-05T07:28:37.989Z,97571.72
2023-03-05T07:31:07.345Z,97565.78
2023-03-05T07:33:35.875Z,97563.63
2023-03-05T07:36:03.416Z,97562.31
2023-03-05T07:38:30.642Z,97564.16
2023-03-05T07:41:01.515Z,97562.28
2023-03-05T07:43:28.665Z,97560.69
2023-03-05T07:45:55.778Z,97559.00
2023-03-05T07:48:23.805Z,97561.22
2023-03-05T07:51:00.512Z,97567.94
2023-03-05T07:53:27.636Z,97554.78
2023-03-05T07:55:54.975Z,97556.91
2023-03-05T07:58:22.279Z,97538.31
2023-03-05T08:00:49.424Z,97556.59
2023-03-05T08:03:16.883Z,97552.84
2023-03-05T08:05:44.156Z,97552.00
2023-03-05T08:08:12.660Z,97558.78
2023-03-05T08:10:39.808Z,97548.53
2023-03-05T08:13:07.110Z,97549.09
2023-03-05T08:15:34.340Z,97542.16
2023-03-05T08:18:01.490Z,97552.91
2023-03-05T08:20:28.753Z,97542.69
2023-03-05T08:22:55.995Z,97546.16
2023-03-05T08:25:24.460Z,97541.09
2023-03-05T08:27:51.665Z,97543.72
2023-03-05T08:30:20.427Z,97540.22
2023-03-05T08:32:49.423Z,97537.81
2023-03-05T08:35:16.657Z,97539.69
2023-03-05T08:37:43.779Z,97542.38
2023-03-05T08:40:12.249Z,97536.44
2023-03-05T08:42:40.721Z,97549.06
2023-03-05T08:45:09.305Z,97543.69
2023-03-05T08:47:36.424Z,97549.03
2023-03-05T08:50:03.675Z,97546.28
2023-03-05T08:52:30.783Z,97536.63
2023-03-05T08:54:58.217Z,97550.88
2023-03-05T08:57:25.386Z,97536.63
2023-03-05T08:59:53.798Z,97540.72
2023-03-05T09:02:20.910Z,97531.59
2023-03-05T09:04:48.014Z,97534.03
2023-03-05T09:07:15.120Z,97529.16
2023-03-05T09:09:42.237Z,97527.03
2023-03-05T09:12:12.137Z,97531.06
2023-03-05T09:14:39.511Z,97513.31
2023-03-05T09:17:08.495Z,97524.81
2023-03-05T09:19:35.617Z,97526.66
2023-03-05T09:22:02.916Z,97526.16
2023-03-05T09:24:30.537Z,97523.19
2023-03-05T09:26:58.687Z,97521.53
2023-03-05T09:29:25.907Z,97523.75
2023-03-05T09:31:53.477Z,97513.19
2023-03-05T09:34:22.533Z,97511.63
2023-03-05T09:36:49.922Z,97491.47
2023-03-05T09:39:17.590Z,97508.59
2023-03-05T09:42:06.260Z,97506.47
2023-03-05T09:44:40.621Z,97498.66
2023-03-05T09:47:21.202Z,97509.41
2023-03-05T09:49:58.768Z,97503.28
2023-03-05T09:52:35.834Z,97506.50
2023-03-05T09:55:04.573Z,97492.53
2023-03-05T09:57:39.066Z,97500.84
2023-03-05T10:00:20.856Z,97505.69
2023-03-05T10:02:52.478Z,97467.03
2023-03-05T10:05:25.978Z,97493.88
2023-03-05T10:07:57.560Z,97489.50
2023-03-05T10:10:28.332Z,97483.31
2023-03-05T10:12:59.868Z,97483.31
2023-03-05T10:15:36.292Z,97478.44
2023-03-05T10:18:19.140Z,97478.94
2023-03-05T10:20:55.013Z,97479.16
2023-03-05T10:23:38.618Z,97474.66
2023-03-05T10:26:15.507Z,97476.22
2023-03-05T10:28:48.148Z,97481.38
2023-03-05T10:31:27.005Z,97477.38
2023-03-05T10:34:10.908Z,97464.25
2023-03-05T10:37:01.058Z,97467.53
2023-03-05T10:39:43.966Z,97468.69
2023-03-05T10:42:20.375Z,97464.94
2023-03-05T10:44:51.987Z,97459.50
2023-03-05T10:47:25.535Z,97453.66
2023-03-05T10:49:54.244Z,97451.19
2023-03-05T10:52:28.057Z,97443.63
2023-03-05T10:54:55.278Z,97442.03
2023-03-05T10:57:24.944Z,97441.50
2023-03-05T10:59:54.626Z,97439.66
2023-03-05T11:02:23.079Z,97432.13
2023-03-05T11:04:51.982Z,97431.63
2023-03-05T11:07:36.656Z,97428.66
2023-03-05T11:10:15.648Z,97421.41
2023-03-05T11:12:43.139Z,97402.66
2023-03-05T11:15:25.288Z,97419.28
2023-03-05T11:18:07.200Z,97412.53
2023-03-05T11:20:36.675Z,97413.59
2023-03-05T11:23:11.422Z,97411.47
2023-03-05T11:25:56.409Z,97403.94
2023-03-05T11:28:32.872Z,97404.03
2023-03-05T11:31:04.490Z,97391.88
2023-03-05T11:33:31.810Z,97394.28
2023-03-05T11:36:22.826Z,97390.81
2023-03-05T11:38:57.281Z,97388.31
2023-03-05T11:41:32.533Z,97375.97
2023-03-05T11:44:03.143Z,97381.28
2023-03-05T11:46:38.188Z,97377.50
2023-03-05T11:49:07.163Z,97378.06
2023-03-05T11:51:41.340Z,97373.22
2023-03-05T11:54:16.089Z,97367.91
2023-03-05T11:56:45.605Z,97363.59
2023-03-05T11:59:16.548Z,97348.84
2023-03-05T12:01:46.794Z,97353.69
2023-03-05T12:04:14.490Z,97358.25
2023-03-05T12:06:46.642Z,97353.19
2023-03-05T12:09:23.653Z,97352.66
2023-03-05T12:11:55.967Z,97339.94
2023-03-05T12:14:28.746Z,97345.34
2023-03-05T12:17:05.474Z,97345.19
2023-03-05T12:19:40.537Z,97336.44
2023-03-05T12:22:17.493Z,97341.75
2023-03-05T12:24:45.972Z,97334.59
2023-03-05T12:27:15.816Z,97330.75
2023-03-05T12:29:48.270Z,97332.34
2023-03-05T12:32:58.242Z,97330.44
2023-03-05T12:35:31.149Z,97323.75
2023-03-05T12:38:02.960Z,97319.59
2023-03-05T12:40:34.361Z,97314.25
2023-03-05T12:43:02.570Z,97318.78
2023-03-05T12:45:37.956Z,97313.09
2023-03-05T12:48:44.375Z,97315.69
2023-03-05T12:51:13.900Z,97308.69
2023-03-05T12:53:41.233Z,97305.03
2023-03-05T12:56:19.600Z,97304.47
2023-03-05T12:58:50.464Z,97307.84
2023-03-05T13:01:33.846Z,97283.66
2023-03-05T13:04:03.416Z,97301.13
2023-03-05T13:06:33.244Z,97299.31
2023-03-05T13:09:02.007Z,97289.66
2023-03-05T13:11:33.692Z,97299.41
2023-03-05T13:14:01.730Z,97299.75
2023-03-05T13:16:36.175Z,97293.09
2023-03-05T13:19:04.032Z,97296.66
2023-03-05T13:21:33.178Z,97292.53
2023-03-05T13:24:02.306Z,97303.28
2023-03-05T13:26:36.964Z,97292.50
2023-03-05T13:29:07.515Z,97296.44
2023-03-05T13:31:36.493Z,97294.38
2023-03-05T13:34:14.172Z,97296.78
2023-03-05T13:36:47.100Z,97286.81
2023-03-05T13:39:23.310Z,97283.38
2023-03-05T13:42:03.488Z,97277.69
2023-03-05T13:44:32.008Z,97289.34
2023-03-05T13:47:15.226Z,97278.06
2023-03-05T13:49:42.834Z,97277.78
2023-03-05T13:52:10.916Z,97277.53
2023-03-05T13:54:38.301Z,97272.22
2023-03-05T13:57:08.616Z,97269.31
2023-03-05T13:59:37.346Z,97269.53
2023-03-05T14:02:15.768Z,97264.97
2023-03-05T14:04:44.896Z,97267.66
2023-03-05T14:07:27.879Z,97267.38
2023-03-05T14:09:55.017Z,97262.81
2023-03-05T14:12:28.588Z,97261.94
2023-03-05T14:14:58.619Z,97260.63
2023-03-05T14:17:38.817Z,97257.41
2023-03-05T14:20:19.175Z,97257.69
2023-03-05T14:22:47.757Z,97255.34
2023-03-05T14:25:33.941Z,97250.75
2023-03-05T14:28:04.139Z,97249.72
2023-03-05T14:30:32.110Z,97249.50
2023-03-05T14:33:00.552Z,97248.38
2023-03-05T14:35:29.273Z,97249.97
2023-03-05T14:37:58.323Z,97241.94
2023-03-05T14:40:28.565Z,97237.59
2023-03-05T14:42:57.633Z,97238.75
2023-03-05T14:45:28.034Z,97238.47
2023-03-05T14:47:59.113Z,97224.31
2023-03-05T14:50:29.602Z,97216.25
2023-03-05T14:52:59.149Z,97231.78
2023-03-05T14:55:28.266Z,97224.03
2023-03-05T14:57:59.916Z,97226.72
2023-03-05T15:00:28.595Z,97224.00
2023-03-05T15:02:55.862Z,97218.34
2023-03-05T15:05:23.430Z,97202.28
2023-03-05T15:07:52.172Z,97211.84
2023-03-05T15:10:22.329Z,97202.47
2023-03-05T15:12:50.173Z,97209.97
2023-03-05T15:15:17.875Z,97204.91
2023-03-05T15:17:48.553Z,97206.00
2023-03-05T15:20:19.590Z,97206.34
2023-03-05T15:22:46.719Z,97201.06
2023-03-05T15:25:14.709Z,97193.34
2023-03-05T15:27:42.080Z,97193.81
2023-03-05T15:30:22.360Z,97178.31
2023-03-05T15:32:51.388Z,97184.56
2023-03-05T15:35:18.622Z,97187.53
2023-03-05T15:37:45.729Z,97177.41
2023-03-05T15:40:13.524Z,97184.34
2023-03-05T15:42:41.154Z,97181.13
2023-03-05T15:45:09.018Z,97175.47
2023-03-05T15:47:36.419Z,97180.78
2023-03-05T15:50:06.263Z,97182.44
2023-03-05T15:52:33.339Z,97178.94
2023-03-05T15:55:00.829Z,97175.47
2023-03-05T15:57:28.373Z,97166.66
2023-03-05T15:59:56.237Z,97163.97
2023-03-05T16:02:23.354Z,97159.66
2023-03-05T16:04:50.434Z,97162.34
2023-03-05T16:07:19.298Z,97166.13
2023-03-05T16:09:50.313Z,97168.59
2023-03-05T16:12:20.485Z,97165.91
2023-03-05T16:14:50.964Z,97158.16
2023-03-05T16:17:21.026Z,97160.69
2023-03-05T16:19:51.600Z,97153.44
2023-03-05T16:22:20.066Z,97166.63
2023-03-05T16:24:47.182Z,97164.22
2023-03-05T16:27:14.270Z,97162.66
2023-03-05T16:29:41.383Z,97161.88
2023-03-05T16:32:08.546Z,97157.81
2023-03-05T16:34:35.758Z,97154.31
2023-03-05T16:37:02.857Z,97151.84
2023-03-05T16:39:31.718Z,97151.84
2023-03-05T16:41:58.803Z,97145.97
2023-03-05T16:44:25.979Z,97149.44
2023-03-05T16:46:53.281Z,97143.28
2023-03-05T16:49:21.159Z,97145.16
2023-03-05T16:51:48.701Z,97152.41
2023-03-05T16:54:15.987Z,97149.81
2023-03-05T16:56:44.414Z,97147.63
2023-03-05T16:59:11.492Z,97138.53
2023-03-05T17:01:38.612Z,97143.16
2023-03-05T17:04:05.927Z,97131.63
2023-03-05T17:06:33.347Z,97132.47
2023-03-05T17:09:00.687Z,97132.47
2023-03-05T17:11:27.828Z,97126.88
2023-03-05T17:13:56.305Z,97130.38
2023-03-05T17:16:23.604Z,97070.22
2023-03-05T17:18:50.897Z,97129.75
2023-03-05T17:21:18.022Z,97127.84
2023-03-05T17:23:45.169Z,97139.09
2023-03-05T17:26:14.213Z,97119.34
2023-03-05T17:28:42.070Z,97134.72
2023-03-05T17:31:11.571Z,97134.72
2023-03-05T17:33:39.508Z,97140.63
2023-03-05T17:36:13.281Z,97147.75
2023-03-05T17:38:40.366Z,97140.44
2023-03-05T17:41:07.467Z,97145.66
2023-03-05T17:43:34.594Z,97139.16
2023-03-05T17:46:01.724Z,97141.34
2023-03-05T17:48:30.312Z,97137.69
2023-03-05T17:50:58.378Z,97135.38
2023-03-05T17:53:25.716Z,97136.56
2023-03-05T17:55:52.923Z,97152.06
2023-03-05T17:58:20.175Z,97143.25
2023-03-05T18:00:47.326Z,97140.84
2023-03-05T18:03:15.150Z,97136.03
2023-03-05T18:05:44.269Z,97110.91
2023-03-05T18:08:11.486Z,97135.22
2023-03-05T18:10:38.817Z,97140.31
2023-03-05T18:13:05.992Z,97132.84
2023-03-05T18:15:33.087Z,97134.88
2023-03-05T18:18:00.874Z,97127.50
2023-03-05T18:20:30.876Z,97138.28
2023-03-05T18:23:00.824Z,97131.72
2023-03-05T18:25:29.173Z,97128.03
2023-03-05T18:27:56.877Z,97132.84
2023-03-05T18:30:23.971Z,97125.38
2023-03-05T18:32:51.108Z,97120.00
2023-03-05T18:35:18.314Z,97128.09
2023-03-05T18:37:45.426Z,97122.28
2023-03-05T18:40:19.384Z,97120.66
2023-03-05T18:42:46.788Z,97126.63
2023-03-05T18:45:15.264Z,97123.94
2023-03-05T18:47:42.718Z,97127.72
2023-03-05T18:50:11.814Z,97112.44
2023-03-05T18:52:38.918Z,97123.06
2023-03-05T18:55:06.808Z,97117.69
2023-03-05T18:57:35.268Z,97117.09
2023-03-05T19:00:02.392Z,97115.72
2023-03-05T19:02:29.474Z,97111.13
2023-03-05T19:04:56.720Z,97105.47
2023-03-05T19:07:23.779Z,97110.63
2023-03-05T19:09:50.925Z,97110.63
2023-03-05T19:12:19.449Z,97116.88
2023-03-05T19:14:47.950Z,97105.81
2023-03-05T19:17:15.098Z,97108.50
2023-03-05T19:19:42.403Z,97103.75
2023-03-05T19:22:10.649Z,97106.47
2023-03-05T19:24:37.846Z,97098.97
2023-03-05T19:27:05.774Z,97085.56
2023-03-05T19:29:32.999Z,97095.97
2023-03-05T19:32:01.728Z,97101.34
2023-03-05T19:34:28.894Z,97101.34
2023-03-05T19:36:56.026Z,97097.81
2023-03-05T19:39:23.216Z,97100.50
2023-03-05T19:41:51.504Z,97097.31
2023-03-05T19:44:18.710Z,97092.94
2023-03-05T19:46:46.036Z,97083.75
2023-03-05T19:49:15.130Z,97087.91
2023-03-05T19:51:43.442Z,97074.19
2023-03-05T19:54:10.809Z,97088.34
2023-03-05T19:56:38.300Z,97075.09
2023-03-05T19:59:05.959Z,97074.59
2023-03-05T20:01:33.183Z,97074.75
2023-03-05T20:04:03.309Z,97068.31
2023-03-05T20:06:33.005Z,97065.31
2023-03-05T20:09:00.315Z,97062.31
2023-03-05T20:11:28.505Z,97067.84
2023-03-05T20:13:56.233Z,97067.03
2023-03-05T20:16:26.330Z,97065.88
2023-03-05T20:18:54.436Z,97059.47
2023-03-05T20:21:24.207Z,97062.97
2023-03-05T20:23:54.020Z,97058.31
2023-03-05T20:26:22.502Z,97055.91
2023-03-05T20:28:49.929Z,97058.97
2023-03-05T20:31:18.470Z,97055.75
2023-03-05T20:33:45.813Z,97054.44
2023-03-05T20:36:12.960Z,97051.81
2023-03-05T20:38:40.210Z,97057.44
2023-03-05T20:41:10.753Z,97038.94
2023-03-05T20:43:41.164Z,97047.25
2023-03-05T20:46:14.772Z,97036.53
2023-03-05T20:48:41.983Z,97039.97
2023-03-05T20:51:13.644Z,97026.78
2023-03-05T20:53:40.845Z,97037.03
2023-03-05T20:56:09.509Z,97030.88
2023-03-05T20:58:36.906Z,97029.47
2023-03-05T21:01:04.213Z,97031.66
2023-03-05T21:03:31.474Z,97016.66
2023-03-05T21:05:58.687Z,96938.97
2023-03-05T21:08:25.762Z,97021.47
2023-03-05T21:10:52.905Z,97020.38
2023-03-05T21:13:21.541Z,97024.09
2023-03-05T21:15:48.637Z,97020.31
2023-03-05T21:18:15.756Z,97013.25
2023-03-05T21:20:42.866Z,97010.13
2023-03-05T21:23:09.980Z,97013.63
2023-03-05T21:25:37.336Z,97012.59
2023-03-05T21:28:07.507Z,96973.31
2023-03-05T21:30:38.320Z,97018.78
2023-03-05T21:33:07.543Z,97013.19
2023-03-05T21:35:35.293Z,97018.56
2023-03-05T21:38:03.928Z,97011.88
2023-03-05T21:40:32.189Z,97011.94
2023-03-05T21:42:59.570Z,97007.34
2023-03-05T21:45:28.566Z,97004.44
2023-03-05T21:47:57.704Z,97002.84
2023-03-05T21:50:25.826Z,96992.72
2023-03-05T21:52:53.329Z,96993.75
2023-03-05T21:55:22.727Z,96991.56
2023-03-05T21:57:49.922Z,96976.59
2023-03-05T22:00:18.036Z,96995.50
2023-03-05T22:02:45.142Z,96995.22
2023-03-05T22:05:13.623Z,96986.06
2023-03-05T22:07:41.714Z,96980.44
2023-03-05T22:10:12.002Z,96982.84
2023-03-05T22:12:39.238Z,96969.69
2023-03-05T22:15:07.876Z,96978.84
2023-03-05T22:17:35.287Z,96966.47
2023-03-05T22:20:02.385Z,96967.88
2023-03-05T22:22:30.911Z,96974.91
2023-03-05T22:24:58.000Z,96972.22
2023-03-05T22:27:25.086Z,96971.72
2023-03-05T22:29:52.263Z,96964.50
2023-03-05T22:32:19.361Z,96965.59
2023-03-05T22:34:46.485Z,96959.72
2023-03-05T22:37:13.589Z,96956.72
2023-03-05T22:39:42.030Z,96946.84
2023-03-05T22:42:09.290Z,96950.03
2023-03-05T22:44:36.477Z,96945.25
2023-03-05T22:47:03.934Z,96940.66
2023-03-05T22:49:32.150Z,96949.19
2023-03-05T22:51:59.258Z,96936.44
2023-03-05T22:54:26.360Z,96938.94
2023-03-05T22:56:54.794Z,96922.34
2023-03-05T22:59:21.885Z,96922.56
2023-03-05T23:01:48.981Z,96926.03
2023-03-05T23:04:16.167Z,96919.59
2023-03-05T23:06:43.309Z,96910.97
2023-03-05T23:09:10.378Z,96913.97
2023-03-05T23:11:37.470Z,96908.59
2023-03-05T23:14:05.966Z,96913.75
2023-03-05T23:16:33.075Z,96904.59
2023-03-05T23:19:00.161Z,96909.81
2023-03-05T23:21:27.276Z,96909.81
2023-03-05T23:23:54.356Z,96904.19
2023-03-05T23:26:21.447Z,96910.09
2023-03-05T23:28:48.554Z,96885.78
2023-03-05T23:31:18.701Z,96905.28
2023-03-05T23:33:45.837Z,96909.03
2023-03-05T23:36:13.038Z,96898.28
2023-03-05T23:38:40.336Z,96893.09
2023-03-05T23:41:08.958Z,96895.78
2023-03-05T23:43:36.044Z,96896.59
2023-03-05T23:46:03.176Z,96897.41
2023-03-05T23:48:31.636Z,96898.97
2023-03-05T23:50:58.735Z,96898.97
2023-03-05T23:53:28.221Z,96898.78
2023-03-05T23:55:55.916Z,96893.91
2023-03-05T23:58:23.634Z,96895.59
